createdAt,value
2022-10-09T00:01:10.720Z,22.00
2022-10-09T00:03:40.372Z,22.00
2022-10-09T00:06:09.400Z,22.00
2022-10-09T00:08:41.400Z,21.90
2022-10-09T00:11:11.399Z,22.00
2022-10-09T00:13:38.865Z,21.90
2022-10-09T00:16:08.617Z,21.90
2022-10-09T00:18:36.224Z,21.90
2022-10-09T00:21:04.592Z,21.80
2022-10-09T00:23:32.503Z,21.80
2022-10-09T00:26:01.381Z,21.80
2022-10-09T00:28:33.387Z,21.70
2022-10-09T00:31:09.284Z,21.70
2022-10-09T00:33:37.287Z,21.70
2022-10-09T00:36:14.055Z,21.60
2022-10-09T00:38:41.412Z,21.60
2022-10-09T00:41:09.093Z,21.60
2022-10-09T00:43:43.181Z,21.50
2022-10-09T00:46:37.704Z,21.50
2022-10-09T00:49:29.493Z,21.50
2022-10-09T00:52:01.955Z,21.40
2022-10-09T00:54:33.024Z,21.40
2022-10-09T00:57:00.780Z,21.40
2022-10-09T00:59:28.451Z,21.30
2022-10-09T01:01:55.918Z,21.30
2022-10-09T01:04:23.282Z,21.30
2022-10-09T01:07:16.466Z,21.30
2022-10-09T01:10:08.537Z,21.30
2022-10-09T01:12:54.683Z,21.30
2022-10-09T01:15:33.181Z,21.30
2022-10-09T01:18:27.970Z,21.30
2022-10-09T01:21:03.990Z,21.20
2022-10-09T01:23:52.923Z,21.20
2022-10-09T01:26:38.717Z,21.20
2022-10-09T01:29:08.949Z,21.20
2022-10-09T01:31:41.601Z,21.20
2022-10-09T01:34:11.759Z,21.10
2022-10-09T01:36:40.112Z,21.10
2022-10-09T01:39:10.245Z,21.10
2022-10-09T01:41:38.062Z,21.10
2022-10-09T01:44:19.479Z,21.10
2022-10-09T01:46:47.515Z,21.10
2022-10-09T01:49:53.542Z,21.10
2022-10-09T01:52:31.106Z,21.00
2022-10-09T01:55:01.429Z,21.00
2022-10-09T01:57:47.816Z,21.00
2022-10-09T02:00:15.839Z,20.90
2022-10-09T02:02:44.707Z,21.00
2022-10-09T02:05:17.787Z,21.00
2022-10-09T02:07:45.712Z,21.00
2022-10-09T02:10:15.452Z,21.00
2022-10-09T02:12:48.086Z,21.00
2022-10-09T02:15:16.239Z,21.00
2022-10-09T02:17:47.630Z,21.00
2022-10-09T02:20:28.949Z,21.00
2022-10-09T02:22:58.239Z,21.00
2022-10-09T02:25:25.577Z,21.10
2022-10-09T02:27:53.102Z,21.10
2022-10-09T02:30:21.550Z,21.10
2022-10-09T02:32:53.438Z,21.10
2022-10-09T02:35:21.502Z,21.10
2022-10-09T02:37:49.155Z,21.10
2022-10-09T02:40:16.594Z,21.10
2022-10-09T02:42:43.870Z,21.10
2022-10-09T02:45:11.281Z,21.10
2022-10-09T02:47:38.578Z,21.00
2022-10-09T02:50:06.545Z,21.00
2022-10-09T02:52:33.806Z,21.00
2022-10-09T02:55:01.026Z,21.00
2022-10-09T02:57:28.436Z,21.00
2022-10-09T02:59:55.716Z,21.00
2022-10-09T03:02:23.076Z,21.00
2022-10-09T03:04:50.423Z,21.00
2022-10-09T03:07:17.695Z,21.00
2022-10-09T03:09:45.070Z,21.00
2022-10-09T03:12:12.364Z,21.00
2022-10-09T03:14:39.747Z,21.00
2022-10-09T03:17:07.008Z,21.00
2022-10-09T03:19:34.227Z,21.00
2022-10-09T03:22:01.484Z,21.00
2022-10-09T03:24:28.888Z,21.00
2022-10-09T03:26:56.161Z,21.00
2022-10-09T03:29:23.793Z,21.00
2022-10-09T03:31:53.198Z,21.00
2022-10-09T03:34:20.872Z,21.10
2022-10-09T03:36:48.208Z,21.10
2022-10-09T03:39:15.506Z,21.10
2022-10-09T03:41:42.764Z,21.10
2022-10-09T03:44:10.021Z,21.10
2022-10-09T03:46:37.294Z,21.10
2022-10-09T03:49:04.781Z,21.10
2022-10-09T03:51:32.080Z,21.10
2022-10-09T03:53:59.328Z,21.20
2022-10-09T03:56:26.596Z,21.20
2022-10-09T03:58:53.977Z,21.20
2022-10-09T04:01:21.351Z,21.20
2022-10-09T04:03:48.658Z,21.10
2022-10-09T04:06:16.542Z,21.20
2022-10-09T04:08:43.909Z,21.10
2022-10-09T04:11:11.205Z,21.10
2022-10-09T04:13:38.448Z,21.20
2022-10-09T04:16:06.029Z,21.10
2022-10-09T04:18:33.383Z,21.10
2022-10-09T04:21:00.737Z,21.10
2022-10-09T04:23:28.090Z,21.10
2022-10-09T04:25:58.384Z,21.10
2022-10-09T04:28:27.153Z,21.10
2022-10-09T04:30:54.600Z,21.00
2022-10-09T04:33:21.911Z,21.00
2022-10-09T04:35:53.552Z,21.00
2022-10-09T04:38:21.489Z,20.90
2022-10-09T04:41:04.073Z,21.00
2022-10-09T04:43:33.532Z,21.00
2022-10-09T04:46:05.503Z,20.90
2022-10-09T04:48:38.348Z,20.90
2022-10-09T04:51:06.827Z,20.80
2022-10-09T04:53:35.896Z,20.80
2022-10-09T04:56:06.279Z,20.80
2022-10-09T04:58:36.461Z,20.70
2022-10-09T05:01:14.226Z,20.80
2022-10-09T05:03:41.705Z,20.80
2022-10-09T05:06:11.242Z,20.70
2022-10-09T05:08:39.761Z,20.70
2022-10-09T05:11:10.445Z,20.60
2022-10-09T05:13:40.379Z,20.60
2022-10-09T05:16:11.878Z,20.60
2022-10-09T05:18:50.807Z,20.60
2022-10-09T05:21:18.671Z,20.60
2022-10-09T05:23:46.616Z,20.60
2022-10-09T05:26:17.807Z,20.50
2022-10-09T05:28:45.728Z,20.50
2022-10-09T05:31:33.491Z,20.50
2022-10-09T05:34:02.054Z,20.60
2022-10-09T05:36:30.059Z,20.60
2022-10-09T05:38:58.008Z,20.60
2022-10-09T05:41:25.265Z,20.60
2022-10-09T05:43:52.509Z,20.60
2022-10-09T05:46:24.887Z,20.60
2022-10-09T05:48:54.808Z,20.60
2022-10-09T05:51:27.559Z,20.60
2022-10-09T05:53:54.940Z,20.70
2022-10-09T05:56:27.704Z,20.60
2022-10-09T05:59:00.405Z,20.70
2022-10-09T06:01:33.579Z,20.70
2022-10-09T06:04:01.347Z,20.70
2022-10-09T06:06:32.375Z,20.60
2022-10-09T06:08:59.986Z,20.60
2022-10-09T06:11:31.589Z,20.70
2022-10-09T06:14:00.736Z,20.70
2022-10-09T06:16:30.891Z,20.70
2022-10-09T06:18:59.087Z,20.70
2022-10-09T06:21:27.709Z,20.70
2022-10-09T06:23:57.617Z,20.80
2022-10-09T06:26:26.576Z,20.80
2022-10-09T06:28:53.817Z,20.80
2022-10-09T06:31:24.732Z,20.90
2022-10-09T06:33:53.388Z,20.90
2022-10-09T06:36:23.537Z,20.80
2022-10-09T06:38:51.297Z,20.80
2022-10-09T06:41:24.014Z,20.90
2022-10-09T06:43:56.805Z,20.80
2022-10-09T06:46:27.244Z,20.80
2022-10-09T06:48:54.633Z,20.90
2022-10-09T06:51:23.315Z,20.90
2022-10-09T06:53:53.542Z,21.00
2022-10-09T06:56:22.676Z,21.00
2022-10-09T06:58:50.324Z,21.00
2022-10-09T07:01:24.447Z,21.10
2022-10-09T07:03:57.721Z,21.20
2022-10-09T07:06:26.253Z,21.20
2022-10-09T07:08:57.278Z,21.20
2022-10-09T07:11:27.249Z,21.30
2022-10-09T07:13:59.599Z,21.40
2022-10-09T07:16:38.924Z,21.50
2022-10-09T07:19:08.281Z,21.50
2022-10-09T07:21:37.039Z,21.60
2022-10-09T07:24:05.636Z,21.60
2022-10-09T07:26:35.642Z,21.70
2022-10-09T07:29:05.251Z,21.70
2022-10-09T07:31:32.719Z,21.80
2022-10-09T07:34:00.664Z,21.80
2022-10-09T07:36:28.160Z,21.80
2022-10-09T07:38:57.232Z,21.90
2022-10-09T07:41:26.738Z,21.80
2022-10-09T07:43:54.425Z,21.90
2022-10-09T07:46:24.201Z,21.90
2022-10-09T07:48:52.388Z,21.90
2022-10-09T07:51:24.017Z,21.90
2022-10-09T07:53:52.047Z,22.00
2022-10-09T07:56:25.912Z,22.10
2022-10-09T07:58:54.956Z,22.10
2022-10-09T08:01:23.720Z,22.10
2022-10-09T08:03:51.290Z,22.10
2022-10-09T08:06:19.591Z,22.00
2022-10-09T08:08:51.058Z,22.10
2022-10-09T08:11:19.698Z,22.10
2022-10-09T08:13:49.363Z,22.20
2022-10-09T08:16:18.077Z,22.20
2022-10-09T08:18:45.680Z,22.20
2022-10-09T08:21:19.039Z,22.30
2022-10-09T08:23:46.779Z,22.40
2022-10-09T08:26:16.083Z,22.40
2022-10-09T08:28:43.699Z,22.60
2022-10-09T08:31:16.320Z,22.60
2022-10-09T08:33:44.228Z,22.70
2022-10-09T08:36:15.291Z,22.70
2022-10-09T08:38:47.853Z,22.70
2022-10-09T08:41:27.485Z,22.80
2022-10-09T08:44:01.733Z,22.80
2022-10-09T08:46:43.392Z,22.80
2022-10-09T08:49:38.645Z,22.90
2022-10-09T08:52:24.536Z,23.10
2022-10-09T08:54:53.980Z,23.10
2022-10-09T08:57:22.201Z,23.20
2022-10-09T08:59:49.540Z,23.30
2022-10-09T09:02:35.738Z,23.40
2022-10-09T09:05:28.657Z,23.40
2022-10-09T09:08:20.883Z,23.40
2022-10-09T09:10:52.981Z,23.50
2022-10-09T09:13:38.517Z,23.70
2022-10-09T09:16:30.598Z,23.90
2022-10-09T09:19:00.802Z,24.00
2022-10-09T09:21:28.026Z,24.10
2022-10-09T09:23:57.555Z,24.20
2022-10-09T09:26:24.833Z,24.30
2022-10-09T09:28:58.345Z,24.40
2022-10-09T09:31:35.601Z,24.40
2022-10-09T09:34:10.969Z,24.50
2022-10-09T09:36:48.861Z,24.60
2022-10-09T09:42:09.610Z,24.70
2022-10-09T09:44:41.946Z,24.80
2022-10-09T09:47:32.839Z,24.90
2022-10-09T09:50:02.359Z,25.10
2022-10-09T09:52:37.021Z,25.20
2022-10-09T09:55:05.701Z,25.30
2022-10-09T09:57:38.412Z,25.40
2022-10-09T10:00:21.866Z,25.40
2022-10-09T10:02:50.300Z,25.20
2022-10-09T10:05:27.455Z,25.40
2022-10-09T10:07:57.551Z,25.30
2022-10-09T10:10:27.418Z,25.20
2022-10-09T10:12:59.347Z,25.20
2022-10-09T10:15:32.125Z,25.30
2022-10-09T10:18:14.879Z,25.30
2022-10-09T10:20:54.523Z,25.20
2022-10-09T10:23:36.883Z,25.20
2022-10-09T10:26:27.857Z,25.20
2022-10-09T10:29:05.524Z,25.30
2022-10-09T10:31:43.397Z,26.30
2022-10-09T10:34:26.836Z,27.40
2022-10-09T10:37:02.568Z,28.10
2022-10-09T10:39:45.423Z,29.20
2022-10-09T10:42:23.549Z,31.00
2022-10-09T10:45:00.483Z,32.10
2022-10-09T10:47:32.551Z,32.10
2022-10-09T10:50:00.324Z,31.50
2022-10-09T10:52:43.861Z,30.80
2022-10-09T10:55:23.189Z,31.60
2022-10-09T10:58:01.845Z,32.80
2022-10-09T11:00:30.951Z,33.20
2022-10-09T11:03:14.837Z,32.90
2022-10-09T11:06:01.315Z,31.90
2022-10-09T11:08:28.561Z,31.50
2022-10-09T11:11:25.040Z,30.10
2022-10-09T11:14:20.643Z,30.20
2022-10-09T11:17:00.134Z,30.20
2022-10-09T11:19:49.597Z,29.70
2022-10-09T11:22:44.918Z,28.90
2022-10-09T11:25:50.762Z,27.90
2022-10-09T11:28:44.330Z,27.70
2022-10-09T11:31:16.802Z,27.70
2022-10-09T11:33:51.009Z,29.80
2022-10-09T11:36:35.132Z,32.30
2022-10-09T11:39:05.580Z,33.80
2022-10-09T11:41:35.245Z,34.80
2022-10-09T11:44:24.409Z,34.10
2022-10-09T11:47:21.834Z,34.60
2022-10-09T11:49:58.265Z,35.00
2022-10-09T11:52:50.043Z,33.90
2022-10-09T11:55:23.989Z,34.20
2022-10-09T11:57:51.622Z,33.50
2022-10-09T12:00:31.315Z,34.20
2022-10-09T12:03:02.231Z,34.30
2022-10-09T12:05:42.958Z,34.50
2022-10-09T12:08:27.250Z,35.60
2022-10-09T12:11:07.831Z,36.10
2022-10-09T12:13:41.275Z,37.20
2022-10-09T12:16:29.572Z,38.40
2022-10-09T12:18:59.012Z,38.30
2022-10-09T12:21:31.349Z,37.80
2022-10-09T12:23:58.981Z,36.70
2022-10-09T12:26:26.721Z,35.30
2022-10-09T12:29:01.107Z,33.80
2022-10-09T12:31:33.894Z,32.70
2022-10-09T12:34:02.985Z,31.80
2022-10-09T12:36:31.600Z,31.10
2022-10-09T12:39:18.379Z,30.40
2022-10-09T12:41:47.784Z,29.90
2022-10-09T12:44:39.718Z,29.40
2022-10-09T12:47:09.469Z,29.10
2022-10-09T12:49:36.819Z,29.00
2022-10-09T12:52:15.315Z,28.90
2022-10-09T12:54:44.574Z,28.70
2022-10-09T12:57:15.572Z,28.50
2022-10-09T12:59:44.207Z,28.40
2022-10-09T13:02:15.651Z,28.10
2022-10-09T13:04:54.834Z,27.90
2022-10-09T13:07:25.576Z,27.90
2022-10-09T13:09:59.693Z,27.90
2022-10-09T13:12:28.827Z,27.90
2022-10-09T13:14:58.980Z,27.80
2022-10-09T13:17:37.236Z,27.70
2022-10-09T13:20:25.595Z,27.60
2022-10-09T13:22:56.792Z,27.60
2022-10-09T13:25:27.223Z,27.40
2022-10-09T13:27:54.819Z,27.40
2022-10-09T13:30:22.045Z,27.10
2022-10-09T13:32:49.924Z,26.80
2022-10-09T13:35:17.562Z,26.60
2022-10-09T13:37:44.884Z,26.60
2022-10-09T13:40:15.925Z,26.60
2022-10-09T13:42:46.905Z,26.50
2022-10-09T13:45:14.232Z,26.50
2022-10-09T13:47:41.479Z,26.70
2022-10-09T13:50:10.535Z,26.70
2022-10-09T13:55:10.778Z,26.80
2022-10-09T13:57:38.344Z,26.80
2022-10-09T14:00:07.252Z,26.70
2022-10-09T14:02:43.536Z,26.60
2022-10-09T14:05:11.112Z,26.40
2022-10-09T14:07:38.430Z,26.30
2022-10-09T14:10:06.253Z,26.20
2022-10-09T14:12:33.532Z,26.20
2022-10-09T14:15:00.850Z,26.10
2022-10-09T14:17:28.128Z,26.00
2022-10-09T14:19:55.431Z,26.00
2022-10-09T14:22:22.790Z,26.00
2022-10-09T14:24:50.032Z,26.00
2022-10-09T14:27:17.295Z,26.00
2022-10-09T14:29:44.598Z,25.80
2022-10-09T14:32:11.880Z,25.80
2022-10-09T14:34:39.100Z,25.70
2022-10-09T14:37:18.392Z,25.60
2022-10-09T14:39:46.866Z,25.60
2022-10-09T14:42:14.189Z,25.60
2022-10-09T14:44:41.548Z,25.60
2022-10-09T14:47:08.905Z,25.60
2022-10-09T14:49:36.186Z,25.50
2022-10-09T14:52:03.453Z,25.50
2022-10-09T14:54:30.776Z,25.40
2022-10-09T14:56:58.028Z,25.40
2022-10-09T14:59:25.339Z,25.30
2022-10-09T15:01:52.626Z,25.20
2022-10-09T15:04:19.990Z,25.20
2022-10-09T15:06:47.263Z,25.20
2022-10-09T15:09:14.562Z,25.20
2022-10-09T15:11:41.836Z,25.10
2022-10-09T15:14:09.306Z,25.10
2022-10-09T15:16:36.604Z,25.00
2022-10-09T15:19:05.632Z,25.00
2022-10-09T15:21:34.844Z,24.90
2022-10-09T15:24:03.511Z,24.90
2022-10-09T15:26:33.265Z,24.80
2022-10-09T15:29:06.128Z,24.80
2022-10-09T15:31:38.886Z,24.80
2022-10-09T15:34:07.709Z,24.60
2022-10-09T15:36:38.143Z,24.70
2022-10-09T15:39:07.389Z,24.70
2022-10-09T15:41:37.317Z,24.70
2022-10-09T15:44:07.995Z,24.70
2022-10-09T15:46:35.685Z,24.60
2022-10-09T15:49:02.950Z,24.50
2022-10-09T15:51:33.079Z,24.50
2022-10-09T15:54:01.187Z,24.50
2022-10-09T15:56:29.366Z,24.50
2022-10-09T15:58:57.626Z,24.40
2022-10-09T16:01:25.746Z,24.40
2022-10-09T16:03:53.193Z,24.40
2022-10-09T16:06:23.545Z,24.40
2022-10-09T16:08:54.450Z,24.30
2022-10-09T16:11:25.114Z,24.30
2022-10-09T16:13:55.127Z,24.20
2022-10-09T16:16:25.287Z,24.10
2022-10-09T16:18:52.927Z,24.10
2022-10-09T16:21:23.502Z,24.10
2022-10-09T16:23:55.865Z,24.10
2022-10-09T16:26:26.595Z,24.10
2022-10-09T16:28:54.038Z,24.10
2022-10-09T16:31:28.230Z,24.00
2022-10-09T16:33:56.416Z,24.00
2022-10-09T16:36:24.432Z,23.90
2022-10-09T16:38:51.790Z,23.90
2022-10-09T16:41:20.999Z,23.90
2022-10-09T16:43:51.111Z,23.90
2022-10-09T16:46:27.935Z,23.80
2022-10-09T16:48:57.124Z,23.80
2022-10-09T16:51:27.564Z,23.80
2022-10-09T16:53:57.859Z,23.70
2022-10-09T16:56:27.796Z,23.70
2022-10-09T16:58:57.261Z,23.60
2022-10-09T17:01:25.698Z,23.50
2022-10-09T17:03:57.645Z,23.50
2022-10-09T17:06:26.225Z,23.50
2022-10-09T17:08:56.240Z,23.40
2022-10-09T17:11:25.546Z,23.40
2022-10-09T17:13:56.757Z,23.40
2022-10-09T17:16:26.956Z,23.40
2022-10-09T17:18:54.435Z,23.40
2022-10-09T17:21:21.911Z,23.30
2022-10-09T17:23:53.257Z,23.40
2022-10-09T17:26:21.328Z,23.30
2022-10-09T17:28:49.352Z,23.30
2022-10-09T17:31:20.697Z,23.20
2022-10-09T17:33:49.539Z,23.20
2022-10-09T17:36:19.319Z,23.20
2022-10-09T17:38:47.709Z,23.10
2022-10-09T17:41:17.394Z,23.20
2022-10-09T17:43:45.343Z,23.10
2022-10-09T17:46:14.742Z,23.10
2022-10-09T17:48:45.114Z,23.10
2022-10-09T17:51:25.569Z,23.10
2022-10-09T17:53:54.268Z,23.10
2022-10-09T17:56:21.613Z,23.10
2022-10-09T17:58:49.643Z,23.00
2022-10-09T18:01:17.857Z,23.00
2022-10-09T18:03:45.315Z,23.00
2022-10-09T18:06:16.291Z,23.00
2022-10-09T18:08:44.278Z,23.00
2022-10-09T18:11:15.213Z,23.00
2022-10-09T18:13:44.360Z,22.90
2022-10-09T18:16:15.012Z,22.80
2022-10-09T18:18:42.641Z,22.80
2022-10-09T18:21:12.683Z,22.80
2022-10-09T18:23:40.192Z,22.80
2022-10-09T18:26:09.277Z,22.70
2022-10-09T18:28:37.252Z,22.60
2022-10-09T18:31:08.786Z,22.50
2022-10-09T18:33:36.198Z,22.50
2022-10-09T18:36:19.547Z,22.50
2022-10-09T18:38:54.996Z,22.50
2022-10-09T18:41:23.137Z,22.50
2022-10-09T18:43:51.766Z,22.60
2022-10-09T18:46:23.453Z,22.60
2022-10-09T18:48:52.017Z,22.60
2022-10-09T18:51:21.661Z,22.60
2022-10-09T18:53:54.137Z,22.60
2022-10-09T18:56:22.363Z,22.60
2022-10-09T18:58:52.559Z,22.60
2022-10-09T19:01:20.176Z,22.60
2022-10-09T19:03:50.126Z,22.50
2022-10-09T19:06:18.792Z,22.50
2022-10-09T19:08:46.823Z,22.50
2022-10-09T19:11:14.837Z,22.50
2022-10-09T19:13:46.283Z,22.50
2022-10-09T19:16:13.832Z,22.50
2022-10-09T19:18:41.635Z,22.50
2022-10-09T19:21:13.392Z,22.50
2022-10-09T19:23:42.104Z,22.50
2022-10-09T19:26:12.996Z,22.50
2022-10-09T19:28:41.074Z,22.50
2022-10-09T19:31:10.467Z,22.50
2022-10-09T19:33:39.786Z,22.40
2022-10-09T19:36:09.905Z,22.40
2022-10-09T19:38:37.773Z,22.30
2022-10-09T19:41:14.516Z,22.40
2022-10-09T19:43:42.472Z,22.40
2022-10-09T19:46:17.846Z,22.40
2022-10-09T19:48:46.293Z,22.30
2022-10-09T19:51:17.327Z,22.30
2022-10-09T19:53:45.199Z,22.30
2022-10-09T19:56:21.759Z,22.30
2022-10-09T19:58:50.463Z,22.30
2022-10-09T20:01:20.376Z,22.20
2022-10-09T20:03:49.199Z,22.20
2022-10-09T20:06:16.970Z,22.20
2022-10-09T20:08:45.687Z,22.20
2022-10-09T20:11:14.373Z,22.20
2022-10-09T20:13:43.333Z,22.20
2022-10-09T20:16:13.431Z,22.20
2022-10-09T20:18:43.027Z,22.20
2022-10-09T20:21:13.225Z,22.20
2022-10-09T20:23:40.697Z,22.20
2022-10-09T20:26:17.975Z,22.10
2022-10-09T20:28:46.759Z,22.10
2022-10-09T20:31:18.557Z,22.10
2022-10-09T20:33:47.421Z,22.10
2022-10-09T20:36:35.495Z,22.10
2022-10-09T20:39:12.072Z,22.00
2022-10-09T20:41:41.679Z,22.00
2022-10-09T20:44:10.616Z,22.00
2022-10-09T20:46:39.066Z,21.90
2022-10-09T20:49:10.100Z,21.90
2022-10-09T20:51:39.077Z,21.90
2022-10-09T20:54:07.766Z,21.90
2022-10-09T20:56:35.336Z,21.90
2022-10-09T20:59:03.421Z,21.90
2022-10-09T21:01:31.085Z,21.80
2022-10-09T21:03:59.328Z,21.80
2022-10-09T21:06:26.784Z,21.80
2022-10-09T21:08:54.125Z,21.80
2022-10-09T21:11:22.062Z,21.80
2022-10-09T21:13:49.910Z,21.80
2022-10-09T21:16:20.232Z,21.80
2022-10-09T21:18:47.747Z,21.80
2022-10-09T21:21:17.621Z,21.70
2022-10-09T21:23:45.630Z,21.70
2022-10-09T21:26:18.005Z,21.70
2022-10-09T21:28:45.960Z,21.70
2022-10-09T21:31:19.515Z,21.60
2022-10-09T21:33:47.327Z,21.60
2022-10-09T21:36:51.166Z,21.60
2022-10-09T21:39:23.420Z,21.70
2022-10-09T21:41:50.828Z,21.70
2022-10-09T21:44:18.135Z,21.70
2022-10-09T21:46:45.397Z,21.60
2022-10-09T21:49:24.889Z,21.60
2022-10-09T21:51:52.269Z,21.60
2022-10-09T21:54:20.600Z,21.50
2022-10-09T21:56:48.598Z,21.50
2022-10-09T21:59:15.969Z,21.50
2022-10-09T22:01:43.345Z,21.50
2022-10-09T22:04:10.741Z,21.50
2022-10-09T22:06:38.004Z,21.50
2022-10-09T22:09:05.272Z,21.50
2022-10-09T22:11:32.614Z,21.50
2022-10-09T22:14:00.045Z,21.50
2022-10-09T22:16:27.383Z,21.50
2022-10-09T22:18:54.685Z,21.50
2022-10-09T22:21:22.942Z,21.50
2022-10-09T22:23:50.988Z,21.50
2022-10-09T22:26:20.400Z,21.50
2022-10-09T22:28:48.336Z,21.50
2022-10-09T22:31:21.617Z,21.50
2022-10-09T22:33:56.296Z,21.50
2022-10-09T22:36:26.105Z,21.50
2022-10-09T22:38:55.496Z,21.40
2022-10-09T22:41:23.877Z,21.40
2022-10-09T22:43:53.727Z,21.40
2022-10-09T22:46:36.484Z,21.40
2022-10-09T22:49:05.815Z,21.40
2022-10-09T22:51:33.175Z,21.40
2022-10-09T22:54:00.810Z,21.40
2022-10-09T22:56:34.036Z,21.40
2022-10-09T22:59:01.731Z,21.40
2022-10-09T23:01:35.951Z,21.30
2022-10-09T23:04:05.817Z,21.30
2022-10-09T23:06:33.296Z,21.30
2022-10-09T23:09:00.945Z,21.30
2022-10-09T23:11:28.209Z,21.30
2022-10-09T23:13:57.350Z,21.20
2022-10-09T23:16:25.316Z,21.20
2022-10-09T23:18:52.830Z,21.20
2022-10-09T23:21:22.314Z,21.20
2022-10-09T23:23:50.605Z,21.20
2022-10-09T23:26:24.276Z,21.30
2022-10-09T23:28:54.442Z,21.20
2022-10-09T23:31:22.991Z,21.30
2022-10-09T23:33:50.595Z,21.30
2022-10-09T23:36:20.214Z,21.20
2022-10-09T23:38:48.212Z,21.20
2022-10-09T23:41:18.726Z,21.20
2022-10-09T23:43:46.859Z,21.20
2022-10-09T23:46:26.489Z,21.20
2022-10-09T23:48:55.262Z,21.20
2022-10-09T23:51:24.876Z,21.20
2022-10-09T23:53:52.558Z,21.20
2022-10-09T23:56:24.392Z,21.20
2022-10-09T23:58:53.030Z,21.30
